sensor_id;sensor_type;location;lat;lon;timestamp;P1;durP1;ratioP1;P2;durP2;ratioP2
76589;SDS011;65471;55.908;37.880;2023-02-25T00:01:37;70.10;;;25.48;;
76589;SDS011;65471;55.908;37.880;2023-02-25T00:04:04;68.47;;;26.45;;
76589;SDS011;65471;55.908;37.880;2023-02-25T00:06:31;76.18;;;27.98;;
76589;SDS011;65471;55.908;37.880;2023-02-25T00:08:58;62.70;;;25.77;;
76589;SDS011;65471;55.908;37.880;2023-02-25T00:11:25;73.35;;;27.25;;
76589;SDS011;65471;55.908;37.880;2023-02-25T00:13:52;70.80;;;29.08;;
76589;SDS011;65471;55.908;37.880;2023-02-25T00:16:21;77.90;;;27.20;;
76589;SDS011;65471;55.908;37.880;2023-02-25T00:18:53;69.53;;;27.70;;
76589;SDS011;65471;55.908;37.880;2023-02-25T00:21:20;70.57;;;27.10;;
76589;SDS011;65471;55.908;37.880;2023-02-25T00:23:48;68.57;;;27.80;;
76589;SDS011;65471;55.908;37.880;2023-02-25T00:26:16;72.70;;;29.23;;
76589;SDS011;65471;55.908;37.880;2023-02-25T00:28:44;71.35;;;28.83;;
76589;SDS011;65471;55.908;37.880;2023-02-25T00:31:12;70.93;;;28.47;;
76589;SDS011;65471;55.908;37.880;2023-02-25T00:33:41;76.43;;;26.83;;
76589;SDS011;65471;55.908;37.880;2023-02-25T00:36:09;80.53;;;27.70;;
76589;SDS011;65471;55.908;37.880;2023-02-25T00:38:39;66.75;;;27.25;;
76589;SDS011;65471;55.908;37.880;2023-02-25T00:41:10;69.38;;;27.13;;
76589;SDS011;65471;55.908;37.880;2023-02-25T00:43:41;62.83;;;25.60;;
76589;SDS011;65471;55.908;37.880;2023-02-25T00:46:10;73.47;;;27.35;;
76589;SDS011;65471;55.908;37.880;2023-02-25T00:48:37;60.75;;;27.05;;
76589;SDS011;65471;55.908;37.880;2023-02-25T00:51:08;66.55;;;27.67;;
76589;SDS011;65471;55.908;37.880;2023-02-25T00:53:43;71.35;;;28.05;;
76589;SDS011;65471;55.908;37.880;2023-02-25T00:56:11;71.47;;;27.08;;
76589;SDS011;65471;55.908;37.880;2023-02-25T00:58:42;68.78;;;27.42;;
76589;SDS011;65471;55.908;37.880;2023-02-25T01:03:46;65.50;;;23.30;;
76589;SDS011;65471;55.908;37.880;2023-02-25T01:06:13;62.20;;;26.13;;
76589;SDS011;65471;55.908;37.880;2023-02-25T01:08:41;71.43;;;27.40;;
76589;SDS011;65471;55.908;37.880;2023-02-25T01:13:39;67.47;;;26.80;;
76589;SDS011;65471;55.908;37.880;2023-02-25T01:16:13;73.05;;;27.80;;
76589;SDS011;65471;55.908;37.880;2023-02-25T01:18:41;71.20;;;27.85;;
76589;SDS011;65471;55.908;37.880;2023-02-25T01:21:19;64.25;;;26.30;;
76589;SDS011;65471;55.908;37.880;2023-02-25T01:23:55;74.43;;;27.83;;
76589;SDS011;65471;55.908;37.880;2023-02-25T01:26:24;75.47;;;28.33;;
76589;SDS011;65471;55.908;37.880;2023-02-25T01:28:52;69.30;;;27.40;;
76589;SDS011;65471;55.908;37.880;2023-02-25T01:31:21;68.20;;;27.02;;
76589;SDS011;65471;55.908;37.880;2023-02-25T01:33:50;76.10;;;28.52;;
76589;SDS011;65471;55.908;37.880;2023-02-25T01:36:17;70.68;;;26.95;;
76589;SDS011;65471;55.908;37.880;2023-02-25T01:38:44;71.55;;;27.50;;
76589;SDS011;65471;55.908;37.880;2023-02-25T01:41:10;66.10;;;26.70;;
76589;SDS011;65471;55.908;37.880;2023-02-25T01:43:38;66.35;;;25.98;;
76589;SDS011;65471;55.908;37.880;2023-02-25T01:46:06;67.43;;;27.55;;
76589;SDS011;65471;55.908;37.880;2023-02-25T01:48:34;70.30;;;26.25;;
76589;SDS011;65471;55.908;37.880;2023-02-25T01:51:05;76.57;;;28.50;;
76589;SDS011;65471;55.908;37.880;2023-02-25T01:53:42;70.28;;;26.73;;
76589;SDS011;65471;55.908;37.880;2023-02-25T01:56:13;73.47;;;26.08;;
76589;SDS011;65471;55.908;37.880;2023-02-25T01:58:43;76.25;;;25.83;;
76589;SDS011;65471;55.908;37.880;2023-02-25T02:01:10;71.90;;;26.67;;
76589;SDS011;65471;55.908;37.880;2023-02-25T02:03:40;69.10;;;27.25;;
76589;SDS011;65471;55.908;37.880;2023-02-25T02:06:19;76.40;;;26.63;;
76589;SDS011;65471;55.908;37.880;2023-02-25T02:08:49;60.25;;;25.00;;
76589;SDS011;65471;55.908;37.880;2023-02-25T02:11:16;69.97;;;27.20;;
76589;SDS011;65471;55.908;37.880;2023-02-25T02:13:46;60.95;;;24.75;;
76589;SDS011;65471;55.908;37.880;2023-02-25T02:18:51;61.58;;;25.77;;
76589;SDS011;65471;55.908;37.880;2023-02-25T02:27:06;65.10;;;26.45;;
76589;SDS011;65471;55.908;37.880;2023-02-25T02:40:17;71.32;;;26.98;;
76589;SDS011;65471;55.908;37.880;2023-02-25T02:45:50;62.65;;;25.02;;
76589;SDS011;65471;55.908;37.880;2023-02-25T02:51:18;61.60;;;24.45;;
76589;SDS011;65471;55.908;37.880;2023-02-25T02:54:05;64.30;;;26.48;;
76589;SDS011;65471;55.908;37.880;2023-02-25T02:56:35;66.53;;;26.95;;
76589;SDS011;65471;55.908;37.880;2023-02-25T03:01:53;65.57;;;25.83;;
76589;SDS011;65471;55.908;37.880;2023-02-25T03:04:29;63.53;;;24.58;;
76589;SDS011;65471;55.908;37.880;2023-02-25T03:07:02;59.55;;;24.15;;
76589;SDS011;65471;55.908;37.880;2023-02-25T03:09:34;65.35;;;25.38;;
76589;SDS011;65471;55.908;37.880;2023-02-25T03:12:05;61.22;;;25.67;;
76589;SDS011;65471;55.908;37.880;2023-02-25T03:14:32;72.88;;;26.35;;
76589;SDS011;65471;55.908;37.880;2023-02-25T03:17:20;68.68;;;26.55;;
76589;SDS011;65471;55.908;37.880;2023-02-25T03:19:55;69.47;;;26.48;;
76589;SDS011;65471;55.908;37.880;2023-02-25T03:22:31;58.90;;;24.88;;
76589;SDS011;65471;55.908;37.880;2023-02-25T03:25:11;53.17;;;23.58;;
76589;SDS011;65471;55.908;37.880;2023-02-25T03:27:44;57.53;;;24.58;;
76589;SDS011;65471;55.908;37.880;2023-02-25T03:32:56;57.65;;;25.75;;
76589;SDS011;65471;55.908;37.880;2023-02-25T03:35:26;63.03;;;25.02;;
76589;SDS011;65471;55.908;37.880;2023-02-25T03:37:59;59.35;;;24.63;;
76589;SDS011;65471;55.908;37.880;2023-02-25T03:40:30;69.35;;;27.48;;
76589;SDS011;65471;55.908;37.880;2023-02-25T03:43:00;57.85;;;25.88;;
76589;SDS011;65471;55.908;37.880;2023-02-25T03:45:42;59.55;;;24.60;;
76589;SDS011;65471;55.908;37.880;2023-02-25T03:48:10;69.47;;;26.17;;
76589;SDS011;65471;55.908;37.880;2023-02-25T03:50:41;72.20;;;26.83;;
76589;SDS011;65471;55.908;37.880;2023-02-25T03:53:12;66.07;;;26.98;;
76589;SDS011;65471;55.908;37.880;2023-02-25T03:55:39;68.15;;;27.38;;
76589;SDS011;65471;55.908;37.880;2023-02-25T03:58:06;65.57;;;24.90;;
76589;SDS011;65471;55.908;37.880;2023-02-25T04:00:34;58.30;;;24.88;;
76589;SDS011;65471;55.908;37.880;2023-02-25T04:03:03;75.68;;;27.02;;
76589;SDS011;65471;55.908;37.880;2023-02-25T04:05:31;70.23;;;27.53;;
76589;SDS011;65471;55.908;37.880;2023-02-25T04:07:59;71.18;;;27.13;;
76589;SDS011;65471;55.908;37.880;2023-02-25T04:10:26;63.22;;;26.83;;
76589;SDS011;65471;55.908;37.880;2023-02-25T04:12:53;58.75;;;25.05;;
76589;SDS011;65471;55.908;37.880;2023-02-25T04:15:21;57.13;;;23.90;;
76589;SDS011;65471;55.908;37.880;2023-02-25T04:17:48;65.03;;;26.67;;
76589;SDS011;65471;55.908;37.880;2023-02-25T04:20:15;64.10;;;26.88;;
76589;SDS011;65471;55.908;37.880;2023-02-25T04:22:42;62.80;;;26.60;;
76589;SDS011;65471;55.908;37.880;2023-02-25T04:25:09;77.00;;;26.80;;
76589;SDS011;65471;55.908;37.880;2023-02-25T04:27:37;71.75;;;25.42;;
76589;SDS011;65471;55.908;37.880;2023-02-25T04:30:04;62.75;;;26.80;;
76589;SDS011;65471;55.908;37.880;2023-02-25T04:32:31;63.53;;;26.45;;
76589;SDS011;65471;55.908;37.880;2023-02-25T04:34:58;66.65;;;26.20;;
76589;SDS011;65471;55.908;37.880;2023-02-25T04:37:29;58.92;;;26.20;;
76589;SDS011;65471;55.908;37.880;2023-02-25T04:39:56;53.70;;;24.98;;
76589;SDS011;65471;55.908;37.880;2023-02-25T04:42:23;54.95;;;25.23;;
76589;SDS011;65471;55.908;37.880;2023-02-25T04:44:50;51.35;;;22.92;;
76589;SDS011;65471;55.908;37.880;2023-02-25T04:47:17;60.97;;;25.95;;
76589;SDS011;65471;55.908;37.880;2023-02-25T04:49:44;65.40;;;27.67;;
76589;SDS011;65471;55.908;37.880;2023-02-25T04:52:12;62.50;;;25.30;;
76589;SDS011;65471;55.908;37.880;2023-02-25T04:54:39;57.15;;;25.45;;
76589;SDS011;65471;55.908;37.880;2023-02-25T04:57:07;60.13;;;26.92;;
76589;SDS011;65471;55.908;37.880;2023-02-25T04:59:34;72.45;;;27.88;;
76589;SDS011;65471;55.908;37.880;2023-02-25T05:02:01;63.80;;;26.45;;
76589;SDS011;65471;55.908;37.880;2023-02-25T05:04:28;65.93;;;28.13;;
76589;SDS011;65471;55.908;37.880;2023-02-25T05:06:55;64.55;;;27.67;;
76589;SDS011;65471;55.908;37.880;2023-02-25T05:09:21;62.42;;;26.48;;
76589;SDS011;65471;55.908;37.880;2023-02-25T05:11:48;58.20;;;25.33;;
76589;SDS011;65471;55.908;37.880;2023-02-25T05:14:15;59.60;;;25.70;;
76589;SDS011;65471;55.908;37.880;2023-02-25T05:16:43;64.55;;;27.40;;
76589;SDS011;65471;55.908;37.880;2023-02-25T05:19:20;58.08;;;25.58;;
76589;SDS011;65471;55.908;37.880;2023-02-25T05:21:49;63.10;;;26.33;;
76589;SDS011;65471;55.908;37.880;2023-02-25T05:24:17;64.85;;;27.08;;
76589;SDS011;65471;55.908;37.880;2023-02-25T05:26:45;59.17;;;25.50;;
76589;SDS011;65471;55.908;37.880;2023-02-25T05:29:11;62.50;;;25.65;;
76589;SDS011;65471;55.908;37.880;2023-02-25T05:31:38;59.83;;;26.13;;
76589;SDS011;65471;55.908;37.880;2023-02-25T05:34:05;60.80;;;26.00;;
76589;SDS011;65471;55.908;37.880;2023-02-25T05:36:32;55.33;;;25.15;;
76589;SDS011;65471;55.908;37.880;2023-02-25T05:38:59;61.13;;;25.45;;
76589;SDS011;65471;55.908;37.880;2023-02-25T05:41:28;51.15;;;24.30;;
76589;SDS011;65471;55.908;37.880;2023-02-25T05:43:55;56.70;;;26.48;;
76589;SDS011;65471;55.908;37.880;2023-02-25T05:46:23;62.50;;;25.17;;
76589;SDS011;65471;55.908;37.880;2023-02-25T05:48:52;58.75;;;24.88;;
76589;SDS011;65471;55.908;37.880;2023-02-25T05:51:19;57.97;;;26.02;;
76589;SDS011;65471;55.908;37.880;2023-02-25T05:53:51;76.88;;;28.23;;
76589;SDS011;65471;55.908;37.880;2023-02-25T05:56:20;103.85;;;37.58;;
76589;SDS011;65471;55.908;37.880;2023-02-25T05:58:49;103.43;;;36.10;;
76589;SDS011;65471;55.908;37.880;2023-02-25T06:01:17;79.82;;;32.13;;
76589;SDS011;65471;55.908;37.880;2023-02-25T06:03:48;74.50;;;30.77;;
76589;SDS011;65471;55.908;37.880;2023-02-25T06:06:17;66.57;;;29.77;;
76589;SDS011;65471;55.908;37.880;2023-02-25T06:08:50;62.17;;;28.23;;
76589;SDS011;65471;55.908;37.880;2023-02-25T06:11:19;65.07;;;27.90;;
76589;SDS011;65471;55.908;37.880;2023-02-25T06:13:51;67.30;;;28.02;;
76589;SDS011;65471;55.908;37.880;2023-02-25T06:16:20;71.68;;;27.23;;
76589;SDS011;65471;55.908;37.880;2023-02-25T06:18:48;68.53;;;27.38;;
76589;SDS011;65471;55.908;37.880;2023-02-25T06:21:16;57.75;;;26.55;;
76589;SDS011;65471;55.908;37.880;2023-02-25T06:23:44;63.00;;;27.52;;
76589;SDS011;65471;55.908;37.880;2023-02-25T06:26:12;48.88;;;24.95;;
76589;SDS011;65471;55.908;37.880;2023-02-25T06:28:39;57.63;;;25.52;;
76589;SDS011;65471;55.908;37.880;2023-02-25T06:31:11;59.85;;;24.23;;
76589;SDS011;65471;55.908;37.880;2023-02-25T06:33:44;58.45;;;24.70;;
76589;SDS011;65471;55.908;37.880;2023-02-25T06:36:12;50.15;;;24.70;;
76589;SDS011;65471;55.908;37.880;2023-02-25T06:38:39;59.47;;;23.88;;
76589;SDS011;65471;55.908;37.880;2023-02-25T06:41:06;53.30;;;24.35;;
76589;SDS011;65471;55.908;37.880;2023-02-25T06:43:41;50.25;;;23.08;;
76589;SDS011;65471;55.908;37.880;2023-02-25T06:46:09;50.45;;;23.33;;
76589;SDS011;65471;55.908;37.880;2023-02-25T06:48:38;51.88;;;23.80;;
76589;SDS011;65471;55.908;37.880;2023-02-25T06:51:05;57.85;;;24.13;;
76589;SDS011;65471;55.908;37.880;2023-02-25T06:53:35;51.70;;;22.70;;
76589;SDS011;65471;55.908;37.880;2023-02-25T06:56:06;50.90;;;23.17;;
76589;SDS011;65471;55.908;37.880;2023-02-25T06:58:34;52.30;;;24.77;;
76589;SDS011;65471;55.908;37.880;2023-02-25T07:01:05;54.65;;;23.98;;
76589;SDS011;65471;55.908;37.880;2023-02-25T07:03:33;54.53;;;23.15;;
76589;SDS011;65471;55.908;37.880;2023-02-25T07:06:00;65.55;;;24.20;;
76589;SDS011;65471;55.908;37.880;2023-02-25T07:08:27;51.60;;;23.85;;
76589;SDS011;65471;55.908;37.880;2023-02-25T07:10:53;50.50;;;23.08;;
76589;SDS011;65471;55.908;37.880;2023-02-25T07:13:20;47.10;;;22.63;;
76589;SDS011;65471;55.908;37.880;2023-02-25T07:15:47;62.72;;;23.58;;
76589;SDS011;65471;55.908;37.880;2023-02-25T07:18:14;53.45;;;22.77;;
76589;SDS011;65471;55.908;37.880;2023-02-25T07:20:41;47.47;;;23.00;;
76589;SDS011;65471;55.908;37.880;2023-02-25T07:23:08;46.28;;;20.52;;
76589;SDS011;65471;55.908;37.880;2023-02-25T07:25:36;49.55;;;22.33;;
76589;SDS011;65471;55.908;37.880;2023-02-25T07:28:03;48.05;;;22.25;;
76589;SDS011;65471;55.908;37.880;2023-02-25T07:30:30;52.55;;;20.98;;
76589;SDS011;65471;55.908;37.880;2023-02-25T07:32:58;38.45;;;18.63;;
76589;SDS011;65471;55.908;37.880;2023-02-25T07:35:25;48.83;;;20.13;;
76589;SDS011;65471;55.908;37.880;2023-02-25T07:37:52;40.30;;;19.15;;
76589;SDS011;65471;55.908;37.880;2023-02-25T07:40:19;39.50;;;19.30;;
76589;SDS011;65471;55.908;37.880;2023-02-25T07:42:45;38.38;;;18.52;;
76589;SDS011;65471;55.908;37.880;2023-02-25T07:45:12;51.53;;;18.08;;
76589;SDS011;65471;55.908;37.880;2023-02-25T07:47:39;31.42;;;17.95;;
76589;SDS011;65471;55.908;37.880;2023-02-25T07:50:06;31.60;;;18.63;;
76589;SDS011;65471;55.908;37.880;2023-02-25T07:52:37;34.70;;;17.42;;
76589;SDS011;65471;55.908;37.880;2023-02-25T07:55:04;30.23;;;17.48;;
76589;SDS011;65471;55.908;37.880;2023-02-25T07:57:32;38.30;;;17.98;;
76589;SDS011;65471;55.908;37.880;2023-02-25T07:59:59;40.50;;;18.15;;
76589;SDS011;65471;55.908;37.880;2023-02-25T08:02:26;33.65;;;17.67;;
76589;SDS011;65471;55.908;37.880;2023-02-25T08:04:53;37.22;;;17.50;;
76589;SDS011;65471;55.908;37.880;2023-02-25T08:07:19;39.80;;;16.20;;
76589;SDS011;65471;55.908;37.880;2023-02-25T08:09:46;44.60;;;18.83;;
76589;SDS011;65471;55.908;37.880;2023-02-25T08:12:13;30.48;;;16.65;;
76589;SDS011;65471;55.908;37.880;2023-02-25T08:14:40;34.25;;;16.50;;
76589;SDS011;65471;55.908;37.880;2023-02-25T08:17:07;39.80;;;16.95;;
76589;SDS011;65471;55.908;37.880;2023-02-25T08:19:33;35.78;;;18.52;;
76589;SDS011;65471;55.908;37.880;2023-02-25T08:22:01;29.02;;;17.02;;
76589;SDS011;65471;55.908;37.880;2023-02-25T08:24:30;31.60;;;16.40;;
76589;SDS011;65471;55.908;37.880;2023-02-25T08:26:57;44.33;;;18.58;;
76589;SDS011;65471;55.908;37.880;2023-02-25T08:29:24;38.38;;;18.17;;
76589;SDS011;65471;55.908;37.880;2023-02-25T08:31:51;31.40;;;15.55;;
76589;SDS011;65471;55.908;37.880;2023-02-25T08:34:18;29.67;;;16.45;;
76589;SDS011;65471;55.908;37.880;2023-02-25T08:36:45;29.23;;;15.57;;
76589;SDS011;65471;55.908;37.880;2023-02-25T08:39:11;30.85;;;15.95;;
76589;SDS011;65471;55.908;37.880;2023-02-25T08:41:38;24.17;;;14.57;;
76589;SDS011;65471;55.908;37.880;2023-02-25T08:44:05;25.52;;;15.55;;
76589;SDS011;65471;55.908;37.880;2023-02-25T08:46:35;28.73;;;14.93;;
76589;SDS011;65471;55.908;37.880;2023-02-25T08:49:03;21.38;;;14.52;;
76589;SDS011;65471;55.908;37.880;2023-02-25T08:51:30;25.92;;;14.50;;
76589;SDS011;65471;55.908;37.880;2023-02-25T08:54:01;31.83;;;15.27;;
76589;SDS011;65471;55.908;37.880;2023-02-25T08:58:56;19.67;;;11.60;;
76589;SDS011;65471;55.908;37.880;2023-02-25T09:01:23;20.70;;;13.25;;
76589;SDS011;65471;55.908;37.880;2023-02-25T09:03:51;35.15;;;14.82;;
76589;SDS011;65471;55.908;37.880;2023-02-25T09:06:19;27.40;;;13.63;;
76589;SDS011;65471;55.908;37.880;2023-02-25T09:08:48;26.48;;;13.80;;
76589;SDS011;65471;55.908;37.880;2023-02-25T09:11:16;19.70;;;13.02;;
76589;SDS011;65471;55.908;37.880;2023-02-25T09:13:44;30.63;;;12.95;;
76589;SDS011;65471;55.908;37.880;2023-02-25T09:16:11;24.35;;;14.00;;
76589;SDS011;65471;55.908;37.880;2023-02-25T09:18:43;27.63;;;14.20;;
76589;SDS011;65471;55.908;37.880;2023-02-25T09:21:11;24.40;;;12.83;;
76589;SDS011;65471;55.908;37.880;2023-02-25T09:23:39;32.30;;;12.27;;
76589;SDS011;65471;55.908;37.880;2023-02-25T09:26:06;25.27;;;12.95;;
76589;SDS011;65471;55.908;37.880;2023-02-25T09:28:34;31.05;;;14.23;;
76589;SDS011;65471;55.908;37.880;2023-02-25T09:31:02;26.75;;;11.60;;
76589;SDS011;65471;55.908;37.880;2023-02-25T09:33:29;17.40;;;12.40;;
76589;SDS011;65471;55.908;37.880;2023-02-25T09:36:16;19.60;;;11.10;;
76589;SDS011;65471;55.908;37.880;2023-02-25T09:38:46;18.80;;;11.70;;
76589;SDS011;65471;55.908;37.880;2023-02-25T09:46:54;16.15;;;11.05;;
76589;SDS011;65471;55.908;37.880;2023-02-25T09:52:20;25.77;;;12.52;;
76589;SDS011;65471;55.908;37.880;2023-02-25T10:06:24;16.17;;;11.00;;
76589;SDS011;65471;55.908;37.880;2023-02-25T10:11:30;18.55;;;10.73;;
76589;SDS011;65471;55.908;37.880;2023-02-25T10:17:29;19.92;;;11.35;;
76589;SDS011;65471;55.908;37.880;2023-02-25T10:25:32;29.35;;;11.00;;
76589;SDS011;65471;55.908;37.880;2023-02-25T10:28:03;22.48;;;11.90;;
76589;SDS011;65471;55.908;37.880;2023-02-25T10:33:19;17.73;;;10.60;;
76589;SDS011;65471;55.908;37.880;2023-02-25T10:35:52;19.30;;;11.32;;
76589;SDS011;65471;55.908;37.880;2023-02-25T10:38:26;30.30;;;11.35;;
76589;SDS011;65471;55.908;37.880;2023-02-25T10:40:54;23.70;;;11.82;;
76589;SDS011;65471;55.908;37.880;2023-02-25T10:43:24;21.58;;;10.85;;
76589;SDS011;65471;55.908;37.880;2023-02-25T10:48:45;31.00;;;10.10;;
76589;SDS011;65471;55.908;37.880;2023-02-25T10:51:25;20.08;;;10.05;;
76589;SDS011;65471;55.908;37.880;2023-02-25T10:56:22;19.92;;;11.40;;
76589;SDS011;65471;55.908;37.880;2023-02-25T11:01:42;18.02;;;11.07;;
76589;SDS011;65471;55.908;37.880;2023-02-25T11:04:10;18.67;;;10.93;;
76589;SDS011;65471;55.908;37.880;2023-02-25T11:06:40;24.35;;;11.90;;
76589;SDS011;65471;55.908;37.880;2023-02-25T11:14:25;17.88;;;9.40;;
76589;SDS011;65471;55.908;37.880;2023-02-25T11:17:01;14.55;;;9.50;;
76589;SDS011;65471;55.908;37.880;2023-02-25T11:19:39;22.65;;;9.75;;
76589;SDS011;65471;55.908;37.880;2023-02-25T11:22:21;25.45;;;9.68;;
76589;SDS011;65471;55.908;37.880;2023-02-25T11:24:58;28.35;;;10.82;;
76589;SDS011;65471;55.908;37.880;2023-02-25T11:27:36;20.90;;;10.65;;
76589;SDS011;65471;55.908;37.880;2023-02-25T11:35:16;30.23;;;10.88;;
76589;SDS011;65471;55.908;37.880;2023-02-25T11:37:45;21.42;;;11.48;;
76589;SDS011;65471;55.908;37.880;2023-02-25T11:40:23;30.65;;;11.50;;
76589;SDS011;65471;55.908;37.880;2023-02-25T11:45:31;17.90;;;11.38;;
76589;SDS011;65471;55.908;37.880;2023-02-25T11:48:01;27.85;;;11.05;;
76589;SDS011;65471;55.908;37.880;2023-02-25T11:50:36;18.13;;;12.02;;
76589;SDS011;65471;55.908;37.880;2023-02-25T12:11:57;18.10;;;11.55;;
76589;SDS011;65471;55.908;37.880;2023-02-25T12:17:58;20.33;;;10.80;;
76589;SDS011;65471;55.908;37.880;2023-02-25T12:31:29;17.60;;;11.52;;
76589;SDS011;65471;55.908;37.880;2023-02-25T12:41:47;32.72;;;12.05;;
76589;SDS011;65471;55.908;37.880;2023-02-25T12:47:23;27.42;;;12.45;;
76589;SDS011;65471;55.908;37.880;2023-02-25T13:01:37;17.45;;;11.30;;
76589;SDS011;65471;55.908;37.880;2023-02-25T13:18:08;21.77;;;11.43;;
76589;SDS011;65471;55.908;37.880;2023-02-25T13:20:55;32.53;;;12.30;;
76589;SDS011;65471;55.908;37.880;2023-02-25T13:32:22;14.20;;;11.27;;
76589;SDS011;65471;55.908;37.880;2023-02-25T13:35:20;24.85;;;11.43;;
76589;SDS011;65471;55.908;37.880;2023-02-25T13:38:18;25.15;;;11.05;;
76589;SDS011;65471;55.908;37.880;2023-02-25T13:46:50;16.02;;;10.20;;
76589;SDS011;65471;55.908;37.880;2023-02-25T14:06:04;20.60;;;11.07;;
76589;SDS011;65471;55.908;37.880;2023-02-25T14:22:35;18.58;;;12.60;;
76589;SDS011;65471;55.908;37.880;2023-02-25T14:27:41;23.10;;;13.82;;
76589;SDS011;65471;55.908;37.880;2023-02-25T14:38:40;27.85;;;14.32;;
76589;SDS011;65471;55.908;37.880;2023-02-25T14:44:02;36.30;;;14.00;;
76589;SDS011;65471;55.908;37.880;2023-02-25T14:46:58;25.67;;;14.50;;
76589;SDS011;65471;55.908;37.880;2023-02-25T14:49:32;23.75;;;14.52;;
76589;SDS011;65471;55.908;37.880;2023-02-25T15:03:47;25.73;;;13.75;;
76589;SDS011;65471;55.908;37.880;2023-02-25T15:11:56;28.63;;;13.98;;
76589;SDS011;65471;55.908;37.880;2023-02-25T15:20:36;32.78;;;14.48;;
76589;SDS011;65471;55.908;37.880;2023-02-25T15:23:11;45.47;;;13.13;;
76589;SDS011;65471;55.908;37.880;2023-02-25T15:28:37;29.30;;;14.15;;
76589;SDS011;65471;55.908;37.880;2023-02-25T15:31:10;24.83;;;14.68;;
76589;SDS011;65471;55.908;37.880;2023-02-25T15:34:07;26.48;;;15.57;;
76589;SDS011;65471;55.908;37.880;2023-02-25T15:36:47;31.77;;;15.20;;
76589;SDS011;65471;55.908;37.880;2023-02-25T15:42:06;23.70;;;14.48;;
76589;SDS011;65471;55.908;37.880;2023-02-25T15:44:39;25.15;;;15.10;;
76589;SDS011;65471;55.908;37.880;2023-02-25T15:49:47;29.42;;;16.33;;
76589;SDS011;65471;55.908;37.880;2023-02-25T15:55:42;30.15;;;16.20;;
76589;SDS011;65471;55.908;37.880;2023-02-25T15:59:10;32.90;;;17.50;;
76589;SDS011;65471;55.908;37.880;2023-02-25T16:01:21;29.63;;;16.27;;
76589;SDS011;65471;55.908;37.880;2023-02-25T16:03:52;28.60;;;16.85;;
76589;SDS011;65471;55.908;37.880;2023-02-25T16:08:51;34.95;;;17.10;;
76589;SDS011;65471;55.908;37.880;2023-02-25T16:16:57;30.85;;;17.13;;
76589;SDS011;65471;55.908;37.880;2023-02-25T16:19:27;43.78;;;18.92;;
76589;SDS011;65471;55.908;37.880;2023-02-25T16:25:12;26.20;;;16.08;;
76589;SDS011;65471;55.908;37.880;2023-02-25T16:41:16;29.67;;;16.10;;
76589;SDS011;65471;55.908;37.880;2023-02-25T16:43:44;27.05;;;15.13;;
76589;SDS011;65471;55.908;37.880;2023-02-25T16:46:13;23.13;;;15.10;;
76589;SDS011;65471;55.908;37.880;2023-02-25T16:48:50;31.10;;;17.38;;
76589;SDS011;65471;55.908;37.880;2023-02-25T16:51:25;26.10;;;15.52;;
76589;SDS011;65471;55.908;37.880;2023-02-25T16:54:11;19.25;;;11.75;;
76589;SDS011;65471;55.908;37.880;2023-02-25T16:56:43;27.70;;;15.90;;
76589;SDS011;65471;55.908;37.880;2023-02-25T17:01:56;27.25;;;16.08;;
76589;SDS011;65471;55.908;37.880;2023-02-25T17:04:27;23.20;;;15.40;;
76589;SDS011;65471;55.908;37.880;2023-02-25T17:20:37;32.35;;;19.67;;
76589;SDS011;65471;55.908;37.880;2023-02-25T17:23:07;33.35;;;19.38;;
76589;SDS011;65471;55.908;37.880;2023-02-25T17:25:40;25.75;;;16.42;;
76589;SDS011;65471;55.908;37.880;2023-02-25T17:28:19;30.90;;;18.88;;
76589;SDS011;65471;55.908;37.880;2023-02-25T17:30:48;36.10;;;18.95;;
76589;SDS011;65471;55.908;37.880;2023-02-25T17:33:21;41.17;;;19.42;;
76589;SDS011;65471;55.908;37.880;2023-02-25T17:36:06;38.83;;;20.13;;
76589;SDS011;65471;55.908;37.880;2023-02-25T17:38:35;40.83;;;19.93;;
76589;SDS011;65471;55.908;37.880;2023-02-25T17:43:32;32.08;;;18.42;;
76589;SDS011;65471;55.908;37.880;2023-02-25T17:46:13;37.00;;;19.60;;
76589;SDS011;65471;55.908;37.880;2023-02-25T17:49:04;33.75;;;19.30;;
76589;SDS011;65471;55.908;37.880;2023-02-25T17:51:42;48.53;;;22.00;;
76589;SDS011;65471;55.908;37.880;2023-02-25T17:54:14;42.95;;;19.95;;
76589;SDS011;65471;55.908;37.880;2023-02-25T17:56:44;44.42;;;21.75;;
76589;SDS011;65471;55.908;37.880;2023-02-25T18:04:41;42.50;;;20.13;;
76589;SDS011;65471;55.908;37.880;2023-02-25T18:07:28;51.25;;;22.67;;
76589;SDS011;65471;55.908;37.880;2023-02-25T18:10:00;47.38;;;21.98;;
76589;SDS011;65471;55.908;37.880;2023-02-25T18:12:36;49.95;;;23.10;;
76589;SDS011;65471;55.908;37.880;2023-02-25T18:15:15;45.88;;;22.98;;
76589;SDS011;65471;55.908;37.880;2023-02-25T18:17:53;50.22;;;23.77;;
76589;SDS011;65471;55.908;37.880;2023-02-25T18:20:34;61.00;;;23.50;;
76589;SDS011;65471;55.908;37.880;2023-02-25T18:23:15;61.30;;;23.45;;
76589;SDS011;65471;55.908;37.880;2023-02-25T18:25:47;53.92;;;23.38;;
76589;SDS011;65471;55.908;37.880;2023-02-25T18:28:34;51.70;;;24.23;;
76589;SDS011;65471;55.908;37.880;2023-02-25T18:31:01;57.05;;;26.63;;
76589;SDS011;65471;55.908;37.880;2023-02-25T18:33:28;65.20;;;26.75;;
76589;SDS011;65471;55.908;37.880;2023-02-25T18:35:55;55.03;;;23.10;;
76589;SDS011;65471;55.908;37.880;2023-02-25T18:38:24;53.33;;;25.77;;
76589;SDS011;65471;55.908;37.880;2023-02-25T18:40:52;50.60;;;25.48;;
76589;SDS011;65471;55.908;37.880;2023-02-25T18:43:24;66.75;;;30.98;;
76589;SDS011;65471;55.908;37.880;2023-02-25T18:48:27;59.30;;;24.63;;
76589;SDS011;65471;55.908;37.880;2023-02-25T18:50:54;62.28;;;27.63;;
76589;SDS011;65471;55.908;37.880;2023-02-25T18:53:24;53.60;;;22.63;;
76589;SDS011;65471;55.908;37.880;2023-02-25T18:55:53;65.28;;;26.77;;
76589;SDS011;65471;55.908;37.880;2023-02-25T18:58:21;57.67;;;24.08;;
76589;SDS011;65471;55.908;37.880;2023-02-25T19:00:59;61.28;;;25.00;;
76589;SDS011;65471;55.908;37.880;2023-02-25T19:03:31;65.22;;;24.80;;
76589;SDS011;65471;55.908;37.880;2023-02-25T19:06:02;65.18;;;26.60;;
76589;SDS011;65471;55.908;37.880;2023-02-25T19:08:29;67.95;;;26.70;;
76589;SDS011;65471;55.908;37.880;2023-02-25T19:10:56;63.47;;;27.83;;
76589;SDS011;65471;55.908;37.880;2023-02-25T19:13:36;58.35;;;26.02;;
76589;SDS011;65471;55.908;37.880;2023-02-25T19:16:06;51.60;;;23.63;;
76589;SDS011;65471;55.908;37.880;2023-02-25T19:18:33;60.97;;;25.30;;
76589;SDS011;65471;55.908;37.880;2023-02-25T19:21:00;62.03;;;25.45;;
76589;SDS011;65471;55.908;37.880;2023-02-25T19:23:27;58.92;;;24.58;;
76589;SDS011;65471;55.908;37.880;2023-02-25T19:25:55;58.15;;;26.25;;
76589;SDS011;65471;55.908;37.880;2023-02-25T19:28:24;61.33;;;23.13;;
76589;SDS011;65471;55.908;37.880;2023-02-25T19:30:52;64.35;;;26.20;;
76589;SDS011;65471;55.908;37.880;2023-02-25T19:33:19;58.70;;;24.15;;
76589;SDS011;65471;55.908;37.880;2023-02-25T19:35:46;59.08;;;24.13;;
76589;SDS011;65471;55.908;37.880;2023-02-25T19:38:14;54.25;;;22.35;;